Time;durP1;ratioP1;P1;durP2;ratioP2;P2;SDS_P1;SDS_P2;PMS_P1;PMS_P2;Temp;Humidity;BMP_temperature;BMP_pressure;BME280_temperature;BME280_humidity;BME280_pressure;Samples;Min_cycle;Max_cycle;Signal;HPM_P1;HPM_P2
2021/12/10 00:01:48;;;;;;;12.90;4.75;;;;;;;4.49;81.45;98661.06;5026489;28;20069;-83
2021/12/10 00:04:17;;;;;;;12.15;5.18;;;;;;;4.54;81.42;98659.69;4987839;28;20132;-83
2021/12/10 00:06:48;;;;;;;12.63;5.57;;;;;;;4.54;81.61;98646.56;5038338;28;20485;-83
2021/12/10 00:09:23;;;;;;;9.20;3.85;;;;;;;4.51;81.51;98648.63;5030331;28;20053;-84
2021/12/10 00:11:56;;;;;;;9.30;3.55;;;;;;;4.53;81.64;98642.28;5008488;28;20037;-83
2021/12/10 00:18:36;;;;;;;13.73;2.97;;;;;;;4.49;81.28;98632.97;4984205;28;20091;-83
2021/12/10 00:21:05;;;;;;;9.32;2.40;;;;;;;4.49;81.65;98625.06;5022790;28;20046;-84
2021/12/10 00:23:32;;;;;;;11.10;2.50;;;;;;;4.51;81.63;98617.06;5030350;28;20099;-83
2021/12/10 00:26:00;;;;;;;5.50;2.50;;;;;;;4.50;81.30;98616.25;5024133;28;20040;-84
2021/12/10 00:28:33;;;;;;;11.75;2.90;;;;;;;4.47;81.38;98613.03;5004366;28;20060;-83
2021/12/10 00:31:20;;;;;;;4.40;2.05;;;;;;;4.47;81.07;98610.38;4979872;28;20037;-83
2021/12/10 00:33:53;;;;;;;5.57;2.65;;;;;;;4.48;81.14;98607.66;4991230;28;20072;-83
2021/12/10 00:36:20;;;;;;;10.60;2.38;;;;;;;4.49;81.23;98597.97;5008936;28;20057;-83
2021/12/10 00:38:48;;;;;;;6.88;2.53;;;;;;;4.49;81.06;98590.91;5005678;28;20045;-84
2021/12/10 00:41:14;;;;;;;9.63;2.88;;;;;;;4.49;81.35;98588.28;4981436;28;20054;-83
2021/12/10 00:43:41;;;;;;;11.07;3.58;;;;;;;4.49;81.02;98587.44;4992910;28;20099;-82
2021/12/10 00:46:08;;;;;;;13.20;3.22;;;;;;;4.48;80.91;98581.38;5010763;28;20049;-83
2021/12/10 00:48:36;;;;;;;12.38;3.33;;;;;;;4.49;80.88;98583.00;5007433;28;20044;-83
2021/12/10 00:51:06;;;;;;;8.52;3.38;;;;;;;4.48;80.77;98577.91;5007130;28;20059;-82
2021/12/10 00:53:33;;;;;;;5.85;2.85;;;;;;;4.47;80.72;98568.34;5004920;28;20060;-83
2021/12/10 00:56:02;;;;;;;10.32;4.43;;;;;;;4.47;80.80;98561.28;5024771;28;20452;-83
2021/12/10 00:58:29;;;;;;;11.60;4.20;;;;;;;4.46;80.76;98564.88;5027502;28;20045;-83
2021/12/10 01:01:00;;;;;;;10.80;3.75;;;;;;;4.46;80.58;98557.00;5010691;28;20061;-82
2021/12/10 01:03:34;;;;;;;10.00;3.08;;;;;;;4.46;80.65;98548.28;5008078;28;20049;-84
2021/12/10 01:06:04;;;;;;;6.47;2.83;;;;;;;4.44;80.55;98553.66;5024786;28;20049;-83
2021/12/10 01:08:32;;;;;;;11.30;3.83;;;;;;;4.44;80.42;98552.81;5025498;28;20511;-83
2021/12/10 01:11:05;;;;;;;9.35;3.30;;;;;;;4.41;80.29;98553.91;5013192;28;20075;-83
2021/12/10 01:13:35;;;;;;;7.88;3.33;;;;;;;4.41;80.58;98546.03;5012922;28;20045;-83
2021/12/10 01:16:19;;;;;;;8.98;3.33;;;;;;;4.38;80.06;98535.78;5009722;28;20042;-83
2021/12/10 01:32:04;;;;;;;8.20;3.55;;;;;;;4.30;80.38;98515.41;5019712;28;20175;-83
2021/12/10 01:34:31;;;;;;;12.15;3.33;;;;;;;4.32;80.34;98510.00;4993999;28;20041;-83
2021/12/10 01:36:58;;;;;;;14.50;4.13;;;;;;;4.33;80.29;98515.13;5012066;28;23733;-83
2021/12/10 01:39:29;;;;;;;6.20;2.80;;;;;;;4.32;80.22;98505.56;5028392;28;20049;-83
2021/12/10 01:46:38;;;;;;;28.98;6.35;;;;;;;4.29;80.42;98491.88;5014606;28;20040;-83
2021/12/10 01:49:08;;;;;;;11.63;3.80;;;;;;;4.30;80.16;98489.13;5018896;28;20425;-83
2021/12/10 01:51:37;;;;;;;7.03;3.53;;;;;;;4.31;80.15;98471.56;5027091;28;20042;-83
2021/12/10 01:54:08;;;;;;;6.93;2.97;;;;;;;4.29;80.03;98463.78;5008310;28;20041;-83
2021/12/10 01:56:37;;;;;;;7.70;3.50;;;;;;;4.31;80.04;98461.88;5028817;28;20049;-83
2021/12/10 02:03:41;;;;;;;6.32;3.13;;;;;;;4.25;80.07;98448.41;4994309;28;20033;-82
2021/12/10 02:06:08;;;;;;;7.22;2.58;;;;;;;4.25;79.59;98435.28;5011099;28;20545;-83
2021/12/10 02:08:36;;;;;;;13.40;2.70;;;;;;;4.25;79.55;98427.38;4988378;28;20045;-82
2021/12/10 02:11:04;;;;;;;5.80;2.50;;;;;;;4.25;79.62;98427.38;5021905;28;20384;-83
2021/12/10 02:13:32;;;;;;;5.80;2.60;;;;;;;4.23;79.61;98403.88;5009955;28;20107;-83
2021/12/10 02:15:58;;;;;;;7.45;2.65;;;;;;;4.23;79.34;98396.00;5023993;28;20045;-83
2021/12/10 02:18:25;;;;;;;9.07;2.63;;;;;;;4.22;79.31;98407.47;5009277;28;20484;-83
2021/12/10 02:21:01;;;;;;;4.88;2.83;;;;;;;4.17;78.87;98406.19;4975762;28;20049;-82
2021/12/10 02:23:32;;;;;;;7.03;2.78;;;;;;;4.19;78.85;98404.28;5016780;28;20048;-83
2021/12/10 02:26:04;;;;;;;4.97;3.00;;;;;;;4.18;78.96;98394.75;5028482;28;20045;-83
2021/12/10 02:28:35;;;;;;;7.55;2.90;;;;;;;4.14;78.75;98383.66;5027668;28;20496;-83
2021/12/10 02:31:04;;;;;;;10.25;4.07;;;;;;;4.14;78.74;98384.47;5026063;28;20424;-83
2021/12/10 02:33:31;;;;;;;9.50;3.30;;;;;;;4.14;78.86;98391.53;5029820;28;20042;-83
2021/12/10 02:35:58;;;;;;;11.73;3.65;;;;;;;4.12;78.45;98386.41;5028089;28;20049;-83
2021/12/10 02:38:25;;;;;;;8.20;3.58;;;;;;;4.10;78.45;98375.19;5016865;28;20064;-83
2021/12/10 02:40:54;;;;;;;9.68;3.50;;;;;;;4.08;78.38;98371.88;5003196;28;20061;-83
2021/12/10 02:43:22;;;;;;;7.30;3.65;;;;;;;4.08;78.36;98364.00;4989428;28;20049;-83
2021/12/10 02:45:55;;;;;;;10.65;4.20;;;;;;;4.05;78.25;98361.63;4984391;28;20042;-83
2021/12/10 02:48:23;;;;;;;10.52;4.70;;;;;;;4.06;78.38;98355.41;5011586;28;20401;-83
2021/12/10 02:50:50;;;;;;;8.75;3.75;;;;;;;4.05;78.44;98353.75;4995647;28;20095;-83
2021/12/10 02:53:23;;;;;;;5.53;3.33;;;;;;;4.05;78.14;98347.66;5009318;28;20081;-82
2021/12/10 02:55:50;;;;;;;14.02;4.00;;;;;;;4.02;78.04;98329.53;5025815;28;20056;-83
2021/12/10 02:58:44;;;;;;;7.78;3.60;;;;;;;3.93;77.67;98323.28;5023743;28;20100;-83
2021/12/10 03:01:19;;;;;;;9.35;3.63;;;;;;;3.98;77.72;98312.38;4963290;28;20100;-84
2021/12/10 03:03:46;;;;;;;5.78;3.30;;;;;;;3.97;77.83;98305.44;5022417;28;20045;-83
2021/12/10 03:06:15;;;;;;;13.23;4.80;;;;;;;3.97;77.83;98310.69;5004992;28;20041;-83
2021/12/10 03:08:47;;;;;;;5.32;3.53;;;;;;;3.96;77.82;98312.50;5039002;28;20393;-83
2021/12/10 03:11:18;;;;;;;9.07;2.78;;;;;;;3.97;77.68;98318.59;5022899;28;20060;-83
2021/12/10 03:13:45;;;;;;;8.98;3.75;;;;;;;3.95;77.77;98302.16;4986699;28;20443;-84
2021/12/10 03:16:13;;;;;;;9.13;3.85;;;;;;;3.93;77.52;98291.75;5013891;28;20056;-83
2021/12/10 03:18:41;;;;;;;5.25;2.83;;;;;;;3.94;77.78;98292.59;5025974;28;20041;-84
2021/12/10 03:21:09;;;;;;;7.00;3.03;;;;;;;3.92;77.66;98285.69;5009025;28;20092;-84
2021/12/10 03:23:42;;;;;;;8.18;2.63;;;;;;;3.91;77.60;98289.25;5010218;28;20386;-83
2021/12/10 03:26:17;;;;;;;5.53;2.97;;;;;;;3.90;77.41;98289.41;4998872;28;20129;-83
2021/12/10 03:28:45;;;;;;;7.55;3.17;;;;;;;3.88;77.23;98284.28;4987636;28;20405;-83
2021/12/10 03:31:13;;;;;;;10.48;3.08;;;;;;;3.87;77.13;98285.25;5012459;28;20037;-83
2021/12/10 03:33:41;;;;;;;7.68;3.13;;;;;;;3.86;76.98;98286.19;5023693;28;20761;-83
2021/12/10 03:36:09;;;;;;;7.03;2.83;;;;;;;3.86;77.16;98269.63;5023482;28;20168;-83
2021/12/10 03:38:39;;;;;;;6.90;3.35;;;;;;;3.84;77.13;98276.78;5039473;28;20128;-84
2021/12/10 03:41:07;;;;;;;9.77;3.45;;;;;;;3.84;77.29;98274.16;5018862;28;20433;-83
2021/12/10 03:43:35;;;;;;;6.00;2.72;;;;;;;3.83;76.98;98275.13;5009421;28;20045;-84
2021/12/10 03:46:04;;;;;;;13.55;3.50;;;;;;;3.80;76.78;98276.22;5023073;28;20108;-84
2021/12/10 03:48:34;;;;;;;16.55;3.80;;;;;;;3.79;76.50;98260.59;4992913;28;20517;-84
2021/12/10 03:51:05;;;;;;;7.38;4.00;;;;;;;3.77;76.63;98254.66;4999937;28;20129;-84
2021/12/10 03:53:32;;;;;;;6.75;3.70;;;;;;;3.76;76.81;98248.56;5010764;28;20038;-83
2021/12/10 03:59:41;;;;;;;7.43;3.13;;;;;;;3.73;76.85;98232.25;4950762;28;20064;-83
2021/12/10 04:02:09;;;;;;;18.48;5.00;;;;;;;3.74;76.74;98231.28;5038675;28;20045;-84
2021/12/10 04:04:54;;;;;;;11.40;4.32;;;;;;;3.65;76.56;98225.88;5001354;28;20041;-83
2021/12/10 04:11:51;;;;;;;11.38;4.07;;;;;;;3.66;76.78;98219.66;5004033;28;20056;-83
2021/12/10 04:14:18;;;;;;;8.25;3.42;;;;;;;3.67;76.99;98210.00;5006350;28;20052;-83
2021/12/10 04:16:45;;;;;;;10.55;3.15;;;;;;;3.66;76.75;98206.53;4982689;28;20047;-84
2021/12/10 04:19:13;;;;;;;9.68;3.53;;;;;;;3.66;76.54;98198.66;5022293;28;20400;-83
2021/12/10 04:21:41;;;;;;;11.98;3.60;;;;;;;3.65;76.70;98196.16;5015099;28;20049;-83
2021/12/10 04:24:13;;;;;;;8.45;4.03;;;;;;;3.65;76.71;98183.03;5020254;28;20113;-84
2021/12/10 04:26:40;;;;;;;7.78;3.63;;;;;;;3.64;76.42;98181.41;5020571;28;20060;-83
2021/12/10 04:29:07;;;;;;;10.32;5.60;;;;;;;3.64;76.67;98176.97;5020735;28;20460;-84
2021/12/10 04:31:34;;;;;;;15.77;7.22;;;;;;;3.64;76.52;98163.03;5020293;28;20447;-82
2021/12/10 04:34:01;;;;;;;15.65;7.35;;;;;;;3.62;76.40;98168.38;5023972;28;20041;-83
2021/12/10 04:36:27;;;;;;;11.35;5.32;;;;;;;3.61;76.46;98161.50;5038090;28;20042;-83
2021/12/10 04:38:54;;;;;;;13.75;4.70;;;;;;;3.60;76.33;98159.81;4999592;28;20049;-83
2021/12/10 04:45:54;;;;;;;7.82;3.90;;;;;;;3.53;76.30;98161.31;5000735;28;20021;-83
2021/12/10 04:48:21;;;;;;;13.50;3.88;;;;;;;3.54;76.30;98170.03;5022988;28;20041;-84
2021/12/10 04:50:48;;;;;;;8.15;3.97;;;;;;;3.53;76.29;98158.69;5021993;28;20041;-84
2021/12/10 04:53:15;;;;;;;7.82;3.97;;;;;;;3.52;76.47;98146.53;5037280;28;20114;-82
2021/12/10 04:55:42;;;;;;;11.70;4.75;;;;;;;3.53;76.08;98147.34;4986834;28;21993;-83
2021/12/10 05:03:00;;;;;;;8.05;3.90;;;;;;;3.46;76.14;98144.41;5010016;28;20027;-84
2021/12/10 05:05:27;;;;;;;7.78;3.50;;;;;;;3.44;76.15;98141.13;5009855;28;20057;-83
2021/12/10 05:07:54;;;;;;;5.88;3.45;;;;;;;3.43;76.23;98144.69;5007165;28;20497;-84
2021/12/10 05:10:21;;;;;;;7.80;3.40;;;;;;;3.44;76.10;98128.00;4989299;28;20552;-83
2021/12/10 05:12:48;;;;;;;8.32;3.58;;;;;;;3.44;76.12;98138.50;5005207;28;20049;-83
2021/12/10 05:15:21;;;;;;;11.48;4.03;;;;;;;3.41;75.88;98129.09;5002869;28;20489;-84
2021/12/10 05:17:50;;;;;;;7.95;3.45;;;;;;;3.42;75.93;98140.41;4969603;28;20099;-83
2021/12/10 05:20:21;;;;;;;9.02;3.95;;;;;;;3.40;75.86;98122.16;5021283;28;20065;-83
2021/12/10 05:22:49;;;;;;;9.68;3.40;;;;;;;3.40;75.81;98119.53;4986447;28;20073;-83
2021/12/10 05:25:16;;;;;;;8.77;3.50;;;;;;;3.40;75.97;98118.72;5018118;28;20065;-83
2021/12/10 05:27:43;;;;;;;10.15;3.63;;;;;;;3.39;75.89;98104.78;5008523;28;20052;-83
2021/12/10 05:30:13;;;;;;;11.02;3.72;;;;;;;3.40;75.72;98109.06;5002999;28;20041;-84
2021/12/10 05:32:40;;;;;;;11.35;3.92;;;;;;;3.38;75.78;98100.47;5022255;28;20119;-83
2021/12/10 05:38:53;;;;;;;7.00;3.30;;;;;;;3.34;75.78;98091.22;4979384;28;20045;-83
2021/12/10 05:41:21;;;;;;;9.77;3.63;;;;;;;3.35;76.01;98097.31;5020817;28;20041;-83
2021/12/10 05:43:47;;;;;;;7.68;3.72;;;;;;;3.35;76.07;98094.69;5042256;28;20401;-82
2021/12/10 05:46:16;;;;;;;7.78;3.88;;;;;;;3.34;76.20;98096.47;5008532;28;20052;-83
2021/12/10 05:48:44;;;;;;;9.30;3.58;;;;;;;3.34;75.80;98085.16;5027664;28;20069;-83
2021/12/10 05:51:11;;;;;;;10.65;4.45;;;;;;;3.33;76.07;98086.94;5022339;28;20509;-83
2021/12/10 05:53:38;;;;;;;10.65;3.85;;;;;;;3.33;75.61;98081.69;4982850;28;20046;-84
2021/12/10 05:56:07;;;;;;;7.63;3.30;;;;;;;3.31;75.72;98073.13;5040362;28;20053;-84
2021/12/10 05:58:35;;;;;;;7.15;3.55;;;;;;;3.30;75.98;98065.38;5023370;28;20136;-84
2021/12/10 06:01:13;;;;;;;7.13;4.63;;;;;;;3.24;75.57;98064.97;5010268;28;20049;-83
2021/12/10 06:03:49;;;;;;;13.70;4.22;;;;;;;3.28;75.75;98056.81;5007203;28;20378;-82
2021/12/10 06:10:21;;;;;;;10.87;4.07;;;;;;;3.21;75.93;98059.16;4965332;28;20103;-82
2021/12/10 06:12:49;;;;;;;7.53;4.65;;;;;;;3.21;75.75;98065.22;5006881;28;20456;-83
2021/12/10 06:15:18;;;;;;;12.85;4.75;;;;;;;3.22;75.83;98058.19;5011071;28;20042;-83
2021/12/10 06:18:40;;;;;;;9.07;4.22;;;;;;;3.14;75.70;98063.28;5007761;28;20135;-83
2021/12/10 06:21:07;;;;;;;13.50;4.82;;;;;;;3.19;75.66;98055.84;4992055;28;20052;-84
2021/12/10 06:23:34;;;;;;;8.30;4.25;;;;;;;3.17;75.47;98048.09;5009616;28;20051;-83
2021/12/10 06:26:03;;;;;;;13.82;4.63;;;;;;;3.16;75.78;98046.44;5005226;28;20057;-83
2021/12/10 06:28:34;;;;;;;8.57;4.95;;;;;;;3.14;75.58;98039.66;5008002;28;20081;-82
2021/12/10 06:31:03;;;;;;;13.13;5.05;;;;;;;3.13;75.45;98038.84;5006312;28;20493;-83
2021/12/10 06:33:31;;;;;;;7.97;4.47;;;;;;;3.12;75.45;98031.09;5007803;28;20050;-83
2021/12/10 06:36:03;;;;;;;17.00;6.50;;;;;;;3.10;75.07;98031.22;5023118;28;20049;-83
2021/12/10 06:38:30;;;;;;;11.65;5.47;;;;;;;3.08;75.53;98017.44;5013482;28;20136;-83
2021/12/10 06:40:57;;;;;;;12.70;5.35;;;;;;;3.08;75.38;98020.06;4986107;28;20064;-83
2021/12/10 06:43:25;;;;;;;14.57;5.65;;;;;;;3.09;75.49;98010.38;5022998;28;20059;-82
2021/12/10 06:45:52;;;;;;;9.93;4.25;;;;;;;3.08;75.30;98009.56;5000425;28;20052;-83
2021/12/10 06:48:26;;;;;;;12.00;5.13;;;;;;;3.04;75.05;98009.00;5010894;28;20045;-83
2021/12/10 06:50:59;;;;;;;14.57;5.55;;;;;;;3.03;75.22;98002.09;5029082;28;20411;-83
2021/12/10 06:53:26;;;;;;;;;;;;;;;2.91;75.27;97992.66;5005078;28;20068;-83
2021/12/10 06:55:53;;;;;;;9.10;4.78;;;;;;;3.00;75.35;97988.41;5021645;28;20339;-83
2021/12/10 06:58:22;;;;;;;12.05;4.50;;;;;;;3.01;75.29;97979.59;5024831;28;20052;-84
2021/12/10 07:00:57;;;;;;;12.75;4.15;;;;;;;2.98;75.38;97972.00;5022749;28;20052;-83
2021/12/10 07:03:26;;;;;;;7.57;4.25;;;;;;;3.00;75.46;97970.91;5005386;28;20746;-83
2021/12/10 07:05:56;;;;;;;9.40;4.50;;;;;;;2.98;75.25;97967.59;5006215;28;20070;-83
2021/12/10 07:08:25;;;;;;;10.27;3.72;;;;;;;2.97;75.41;97960.66;5011400;28;20053;-83
2021/12/10 07:10:52;;;;;;;6.68;3.50;;;;;;;2.97;75.31;97958.03;5025839;28;20437;-83
2021/12/10 07:13:19;;;;;;;9.93;4.13;;;;;;;2.97;75.32;97951.97;4985187;28;20045;-83
2021/12/10 07:15:47;;;;;;;12.27;3.67;;;;;;;2.95;75.22;97946.88;5003969;28;20091;-84
2021/12/10 07:18:16;;;;;;;10.18;4.32;;;;;;;2.95;75.22;97949.50;5022364;28;20037;-83
2021/12/10 07:20:43;;;;;;;11.90;5.57;;;;;;;2.92;75.23;97936.63;5027370;28;20624;-83
2021/12/10 07:23:10;;;;;;;13.38;6.45;;;;;;;2.92;74.86;97935.81;5023984;28;20045;-83
2021/12/10 07:25:38;;;;;;;13.40;7.30;;;;;;;2.91;74.87;97942.03;5006543;28;20049;-83
2021/12/10 07:28:05;;;;;;;12.25;6.72;;;;;;;2.90;74.93;97937.75;5011249;28;20047;-83
2021/12/10 07:30:33;;;;;;;15.68;7.35;;;;;;;2.88;74.92;97937.88;5024184;28;20033;-83
2021/12/10 07:33:05;;;;;;;22.38;7.72;;;;;;;2.87;74.87;97924.91;5024401;28;20045;-83
2021/12/10 07:35:32;;;;;;;14.80;7.10;;;;;;;2.86;74.92;97924.09;5026590;28;20072;-83
2021/12/10 07:37:59;;;;;;;10.82;5.93;;;;;;;2.85;74.92;97918.97;5006066;28;20037;-83
2021/12/10 07:40:28;;;;;;;11.02;5.25;;;;;;;2.84;74.64;97918.13;5007732;28;20048;-83
2021/12/10 07:42:55;;;;;;;15.88;6.28;;;;;;;2.84;74.70;97923.38;5008503;28;20045;-83
2021/12/10 07:45:23;;;;;;;17.50;7.00;;;;;;;2.83;74.85;97919.94;5025701;28;20113;-81
2021/12/10 07:47:53;;;;;;;16.48;7.25;;;;;;;2.82;74.70;97918.28;5020877;28;20057;-83
2021/12/10 07:50:23;;;;;;;17.10;6.38;;;;;;;2.81;74.59;97911.38;5023232;28;20045;-83
2021/12/10 07:52:55;;;;;;;18.88;7.50;;;;;;;2.81;74.61;97911.38;5001124;28;20096;-84
2021/12/10 07:55:28;;;;;;;15.32;7.15;;;;;;;2.78;74.50;97897.72;5005599;28;20037;-83
2021/12/10 07:57:55;;;;;;;12.15;5.60;;;;;;;2.79;74.64;97887.09;4991360;28;20141;-83
2021/12/10 08:00:31;;;;;;;10.23;5.95;;;;;;;2.77;74.70;97883.78;5010542;28;20093;-83
2021/12/10 08:02:58;;;;;;;12.65;6.63;;;;;;;2.77;74.33;97875.94;4989689;28;20044;-83
2021/12/10 08:05:26;;;;;;;11.32;5.53;;;;;;;2.76;74.86;97869.00;5021073;28;20638;-83
2021/12/10 08:07:58;;;;;;;10.40;5.43;;;;;;;2.76;74.67;97869.00;5023920;28;20065;-84
2021/12/10 08:10:26;;;;;;;11.55;6.07;;;;;;;2.76;74.81;97876.88;5021183;28;20103;-83
2021/12/10 08:12:53;;;;;;;14.48;6.82;;;;;;;2.76;74.91;97871.63;5009874;28;20048;-83
2021/12/10 08:15:20;;;;;;;18.23;7.78;;;;;;;2.75;74.94;97877.84;5022244;28;20053;-84
2021/12/10 08:17:46;;;;;;;20.15;9.18;;;;;;;2.77;74.66;97869.84;5002785;28;20075;-84
2021/12/10 08:20:18;;;;;;;23.52;10.10;;;;;;;2.74;74.96;97878.78;5008063;28;20049;-84
2021/12/10 08:22:50;;;;;;;23.35;10.43;;;;;;;2.73;74.92;97881.56;5023156;28;20049;-84
2021/12/10 08:25:20;;;;;;;24.88;10.93;;;;;;;2.75;75.04;97880.47;5003065;28;20050;-82
2021/12/10 08:27:47;;;;;;;22.88;11.25;;;;;;;2.75;75.20;97877.03;5021510;28;20045;-84
2021/12/10 08:30:17;;;;;;;16.35;8.88;;;;;;;2.76;75.54;97869.00;5003149;28;20053;-83
2021/12/10 08:32:44;;;;;;;11.20;5.55;;;;;;;2.77;75.46;97868.06;5021770;28;20037;-83
2021/12/10 08:35:14;;;;;;;14.88;5.75;;;;;;;2.79;75.56;97873.16;5007886;28;20049;-83
2021/12/10 08:37:41;;;;;;;16.73;6.50;;;;;;;2.80;75.64;97873.03;5005832;28;20123;-83
2021/12/10 08:40:10;;;;;;;18.13;8.20;;;;;;;2.80;75.45;97862.53;5007231;28;20059;-84
2021/12/10 08:42:37;;;;;;;19.20;9.75;;;;;;;2.80;75.40;97861.72;4984216;28;20054;-83
2021/12/10 08:45:05;;;;;;;16.35;8.38;;;;;;;2.80;75.31;97862.53;5008931;28;20493;-84
2021/12/10 08:47:36;;;;;;;18.25;8.75;;;;;;;2.78;75.30;97871.50;5004400;28;20045;-83
2021/12/10 08:50:06;;;;;;;15.45;8.07;;;;;;;2.78;75.34;97864.47;5024104;28;20042;-83
2021/12/10 08:52:33;;;;;;;14.75;8.40;;;;;;;2.78;75.69;97861.84;5022592;28;20041;-83
2021/12/10 08:55:00;;;;;;;16.45;8.77;;;;;;;2.81;75.93;97868.63;5005941;28;20538;-83
2021/12/10 08:57:26;;;;;;;16.92;8.27;;;;;;;2.79;76.17;97855.63;4983045;28;20045;-83
2021/12/10 08:59:53;;;;;;;19.38;7.28;;;;;;;2.82;76.25;97863.25;5004159;28;20044;-83
2021/12/10 09:02:20;;;;;;;14.48;7.93;;;;;;;2.82;76.21;97859.78;5024828;28;20056;-83
2021/12/10 09:04:47;;;;;;;16.33;7.20;;;;;;;2.82;76.48;97858.00;5020711;28;20662;-83
2021/12/10 09:07:16;;;;;;;13.55;6.65;;;;;;;2.83;76.48;97864.88;5002686;28;20061;-82
2021/12/10 09:09:45;;;;;;;11.77;5.82;;;;;;;2.83;76.48;97864.06;5025700;28;20447;-80
2021/12/10 09:12:18;;;;;;;11.38;5.25;;;;;;;2.82;76.14;97867.63;5001216;28;20080;-83
2021/12/10 09:14:50;;;;;;;23.70;6.03;;;;;;;2.83;76.40;97859.66;5000428;28;20056;-83
2021/12/10 09:17:21;;;;;;;20.15;7.55;;;;;;;2.84;76.40;97857.84;5023831;28;20038;-84
2021/12/10 09:19:54;;;;;;;10.00;5.30;;;;;;;2.83;76.32;97857.03;5025755;28;20072;-84
2021/12/10 09:22:21;;;;;;;14.18;6.10;;;;;;;2.83;76.29;97853.59;5010121;28;20044;-83
2021/12/10 09:24:49;;;;;;;12.18;6.25;;;;;;;2.83;76.20;97848.34;5006365;28;20045;-83
2021/12/10 09:27:16;;;;;;;13.52;5.85;;;;;;;2.83;76.72;97851.78;5007553;28;20076;-83
2021/12/10 09:29:45;;;;;;;18.25;5.07;;;;;;;2.85;76.66;97849.03;5030397;28;20041;-84
2021/12/10 09:32:15;;;;;;;7.95;5.20;;;;;;;2.86;76.83;97844.63;5029363;28;20412;-82
2021/12/10 09:34:43;;;;;;;12.27;5.15;;;;;;;2.86;76.92;97844.63;5010808;28;20049;-83
2021/12/10 09:37:12;;;;;;;10.68;5.78;;;;;;;2.86;76.88;97842.81;5026659;28;20046;-83
2021/12/10 09:39:39;;;;;;;9.60;4.97;;;;;;;2.88;76.98;97838.28;5025252;28;20420;-83
2021/12/10 09:42:07;;;;;;;8.88;4.63;;;;;;;2.87;76.80;97831.34;5009015;28;20057;-83
2021/12/10 09:44:36;;;;;;;9.35;4.40;;;;;;;2.88;77.03;97830.41;4991919;28;20128;-84
2021/12/10 09:47:04;;;;;;;14.32;4.78;;;;;;;2.88;76.84;97819.94;4992667;28;20037;-83
2021/12/10 09:49:31;;;;;;;11.75;5.18;;;;;;;2.88;76.64;97824.34;5002582;28;20615;-83
2021/12/10 09:52:04;;;;;;;12.85;5.63;;;;;;;2.86;76.53;97828.91;4990726;28;20057;-82
2021/12/10 09:54:33;;;;;;;16.38;5.68;;;;;;;2.88;76.91;97817.31;4993215;28;20052;-83
2021/12/10 09:57:04;;;;;;;10.63;4.57;;;;;;;2.88;76.63;97819.09;5012228;28;20784;-82
2021/12/10 09:59:32;;;;;;;14.98;5.50;;;;;;;2.90;77.05;97814.53;5011060;28;20472;-84
2021/12/10 10:02:03;;;;;;;11.00;4.50;;;;;;;2.90;76.92;97809.28;5028062;28;22842;-81
2021/12/10 10:04:34;;;;;;;13.45;5.75;;;;;;;2.90;77.00;97807.53;5021845;28;20115;-84
2021/12/10 10:07:07;;;;;;;11.60;5.50;;;;;;;2.89;76.94;97797.97;5013387;28;20046;-82
2021/12/10 10:09:34;;;;;;;14.90;5.82;;;;;;;2.90;77.13;97796.19;5008230;28;20046;-83
2021/12/10 10:12:12;;;;;;;15.75;6.70;;;;;;;2.89;77.23;97795.34;5007023;28;20124;-83
2021/12/10 10:14:40;;;;;;;15.15;5.47;;;;;;;2.91;77.35;97803.09;5031260;28;20981;-84
2021/12/10 10:17:09;;;;;;;16.08;5.53;;;;;;;2.92;77.34;97791.63;5000546;28;20053;-84
2021/12/10 10:19:36;;;;;;;16.45;6.28;;;;;;;2.91;77.33;97790.00;5000725;28;20045;-83
2021/12/10 10:22:06;;;;;;;15.15;6.20;;;;;;;2.90;77.67;97783.94;5025859;28;20167;-83
2021/12/10 10:24:33;;;;;;;17.17;5.55;;;;;;;2.92;77.46;97781.16;5005880;28;20125;-82
2021/12/10 10:27:11;;;;;;;12.60;5.57;;;;;;;2.88;77.50;97775.38;5028601;28;20057;-83
2021/12/10 10:29:42;;;;;;;11.43;6.03;;;;;;;2.92;77.66;97783.78;5005014;28;20524;-83
2021/12/10 10:32:13;;;;;;;17.52;6.45;;;;;;;2.91;77.88;97772.47;5005872;28;20038;-84
2021/12/10 10:34:47;;;;;;;13.27;5.45;;;;;;;2.91;77.76;97764.59;5019353;28;20044;-83
2021/12/10 10:37:15;;;;;;;10.73;5.78;;;;;;;2.93;77.60;97770.53;4974837;28;20057;-82
2021/12/10 10:39:43;;;;;;;13.82;6.13;;;;;;;2.93;77.71;97762.66;5015024;28;20065;-83
2021/12/10 10:42:15;;;;;;;20.15;8.38;;;;;;;2.92;77.92;97758.38;5027024;28;20046;-83
2021/12/10 10:44:59;;;;;;;9.93;5.90;;;;;;;2.92;77.68;97750.50;5024283;28;20504;-84
2021/12/10 10:47:26;;;;;;;18.38;6.90;;;;;;;2.92;77.76;97747.88;4985018;28;20073;-83
2021/12/10 10:50:00;;;;;;;12.32;6.20;;;;;;;2.92;77.92;97742.66;5023113;28;20040;-84
2021/12/10 10:52:33;;;;;;;14.07;6.68;;;;;;;2.92;77.80;97731.34;4991085;28;20037;-84
2021/12/10 10:55:08;;;;;;;13.43;6.13;;;;;;;2.88;77.90;97733.44;5025630;28;20132;-84
2021/12/10 10:57:35;;;;;;;16.42;6.00;;;;;;;2.91;77.71;97734.94;5008040;28;20041;-83
2021/12/10 11:00:22;;;;;;;14.40;5.68;;;;;;;2.86;77.58;97730.09;5005831;28;20057;-83
2021/12/10 11:02:52;;;;;;;10.30;5.03;;;;;;;2.92;77.85;97739.22;5005490;28;20048;-83
2021/12/10 11:05:22;;;;;;;13.30;6.20;;;;;;;2.92;78.00;97734.78;5005741;28;20045;-85
2021/12/10 11:07:52;;;;;;;11.88;5.30;;;;;;;3.04;80.90;97732.84;5007947;28;20045;-83
2021/12/10 11:10:37;;;;;;;17.27;5.63;;;;;;;2.99;79.21;97740.31;5023179;28;20050;-84
2021/12/10 11:13:19;;;;;;;15.85;6.90;;;;;;;2.99;78.59;97725.41;5005453;28;20038;-83
2021/12/10 11:16:20;;;;;;;12.68;7.15;;;;;;;2.95;78.66;97723.19;4992338;28;20053;-83
2021/12/10 11:19:36;;;;;;;20.08;8.43;;;;;;;2.93;78.47;97725.16;4969430;28;20049;-83
2021/12/10 11:22:09;;;;;;;15.90;8.25;;;;;;;2.97;78.66;97718.66;4960350;28;20401;-82
2021/12/10 11:24:44;;;;;;;16.95;8.70;;;;;;;2.95;78.42;97713.56;5022617;28;20057;-83
2021/12/10 11:27:36;;;;;;;22.63;9.02;;;;;;;2.90;78.85;97715.78;5001083;28;20080;-84
2021/12/10 11:30:03;;;;;;;21.92;8.98;;;;;;;2.96;78.65;97712.56;4986248;28;20041;-81
2021/12/10 11:33:01;;;;;;;14.90;8.20;;;;;;;2.89;78.67;97714.09;5031025;28;20559;-83
2021/12/10 11:35:38;;;;;;;20.90;8.50;;;;;;;2.91;78.52;97716.59;4976734;28;20177;-82
2021/12/10 11:38:32;;;;;;;17.80;8.98;;;;;;;2.87;78.51;97716.03;5024130;28;20679;-82
2021/12/10 11:41:22;;;;;;;19.33;8.30;;;;;;;2.86;78.52;97710.94;4988801;28;20041;-82
2021/12/10 11:44:25;;;;;;;19.55;8.75;;;;;;;2.85;78.57;97704.03;4991980;28;20037;-82
2021/12/10 11:47:25;;;;;;;19.88;8.88;;;;;;;2.92;78.45;97710.38;4962735;28;20054;-81
2021/12/10 11:49:50;;;;;;;23.52;8.95;;;;;;;2.93;78.77;97712.03;4968137;28;20552;-81
2021/12/10 11:52:21;;;;;;;22.15;9.90;;;;;;;2.91;78.76;97704.31;5002751;28;20046;-82
2021/12/10 11:54:54;;;;;;;21.13;9.77;;;;;;;2.91;78.60;97704.31;5023385;28;20480;-83
2021/12/10 11:57:26;;;;;;;26.00;10.23;;;;;;;2.92;78.82;97702.50;5005332;28;20048;-82
2021/12/10 12:00:04;;;;;;;19.83;9.70;;;;;;;2.93;78.97;97709.41;5008158;28;20811;-83
2021/12/10 12:02:51;;;;;;;16.20;9.05;;;;;;;2.89;78.46;97713.28;5004738;28;20555;-83
2021/12/10 12:05:21;;;;;;;23.48;9.98;;;;;;;2.95;78.60;97704.84;5002295;28;20132;-82
2021/12/10 12:08:00;;;;;;;23.17;8.85;;;;;;;2.96;78.36;97703.88;4988511;28;20037;-82
2021/12/10 12:10:36;;;;;;;23.52;10.63;;;;;;;2.94;78.45;97696.16;5010441;28;20041;-82
2021/12/10 12:15:48;;;;;;;19.75;8.85;;;;;;;2.91;78.19;97693.00;4983029;28;20066;-82
2021/12/10 12:18:25;;;;;;;19.55;8.77;;;;;;;2.90;78.20;97692.19;4984099;28;20049;-83
2021/12/10 12:20:53;;;;;;;18.27;8.13;;;;;;;2.92;78.28;97692.84;5000646;28;20133;-82
2021/12/10 12:26:22;;;;;;;22.60;8.95;;;;;;;2.89;78.01;97690.50;5020007;28;20041;-82
2021/12/10 12:29:11;;;;;;;18.27;7.17;;;;;;;3.03;84.60;97697.13;4967060;28;20053;-82
2021/12/10 12:31:46;;;;;;;22.55;9.40;;;;;;;3.17;81.62;97687.97;5004912;28;20452;-81
2021/12/10 12:34:24;;;;;;;21.48;9.95;;;;;;;3.19;80.06;97693.91;5036778;28;20048;-83
2021/12/10 12:37:01;;;;;;;17.45;7.43;;;;;;;3.16;79.60;97695.03;5022462;28;20429;-80
2021/12/10 12:39:54;;;;;;;19.90;8.80;;;;;;;3.11;79.24;97697.25;4976310;28;20678;-82
2021/12/10 12:42:34;;;;;;;17.70;9.02;;;;;;;3.09;79.34;97695.72;5000777;28;20045;-83
2021/12/10 12:45:08;;;;;;;22.48;10.00;;;;;;;3.06;79.15;97696.03;4981294;28;20664;-82
2021/12/10 12:47:55;;;;;;;20.05;9.60;;;;;;;3.06;79.40;97691.59;4991108;28;20064;-82
2021/12/10 12:51:17;;;;;;;19.13;10.90;;;;;;;2.97;79.36;97695.03;4968212;28;20053;-82
2021/12/10 12:53:47;;;;;;;;;;;;;;;2.89;79.58;97693.13;4961460;28;20042;-82